Cambridge, United Kingdom
Current Conditions -  °F | °C
As of 4:20 PM on Saturday 22 Nov 2014 (Local Time) from EGSC Reporting Station
Scattered Clouds Scattered Clouds  
Wind Chill: 55°   Ceiling: Unl
Heat Index: 55°   Visibility: 5mi
Dew Point: 54°   Wind: 6mph
Humidity: 94%   Direction: 160°SSE
Pressure: 29.91"   Gusts: NA
Location:  52.2°N, 0.13°E
Report Text: EGSC 221620Z 16005KT 130V200 8000 FEW010 SCT045 13/12 Q1013
Loading
Personal Weather Stations






























Interactive Weather Map New forecast layout! Learn more

10-Day Weather Forecast

Advertisements
Track Severe Weather on mobile